Time;durP1;ratioP1;P1;durP2;ratioP2;P2;SDS_P1;SDS_P2;PMS_P1;PMS_P2;Temp;Humidity;BMP_temperature;BMP_pressure;BME280_temperature;BME280_humidity;BME280_pressure;Samples;Min_cycle;Max_cycle;Signal;HPM_P1;HPM_P2
2023/02/01 00:01:54;;;;;;;32.22;4.70;;;7.00;99.90;;;;;;5130637;27;20229;-75
2023/02/01 00:04:20;;;;;;;33.33;5.10;;;7.10;99.90;;;;;;5124282;27;20193;-74
2023/02/01 00:06:46;;;;;;;39.90;4.88;;;7.00;99.90;;;;;;5132001;27;20181;-75
2023/02/01 00:09:12;;;;;;;36.33;5.25;;;7.10;99.90;;;;;;5132142;27;20687;-75
2023/02/01 00:11:38;;;;;;;38.88;5.68;;;7.10;99.90;;;;;;5130530;27;20191;-81
2023/02/01 00:14:04;;;;;;;25.80;4.35;;;7.10;99.90;;;;;;5118283;27;20180;-76
2023/02/01 00:16:31;;;;;;;36.35;5.43;;;7.10;99.90;;;;;;5120036;27;20214;-75
2023/02/01 00:19:25;;;;;;;24.90;4.53;;;7.10;99.90;;;;;;5124121;27;20185;-75
2023/02/01 00:21:51;;;;;;;34.28;5.18;;;7.10;99.90;;;;;;5125056;27;20265;-78
2023/02/01 00:24:17;;;;;;;35.72;4.82;;;7.10;99.90;;;;;;5127076;27;20594;-75
2023/02/01 00:26:45;;;;;;;32.65;4.95;;;7.10;99.90;;;;;;5113683;28;20601;-75
2023/02/01 00:29:16;;;;;;;27.17;4.63;;;7.10;99.90;;;;;;5115692;28;20177;-75
2023/02/01 00:31:43;;;;;;;28.67;4.63;;;7.10;99.90;;;;;;5130661;28;20164;-74
2023/02/01 00:34:14;;;;;;;35.05;4.95;;;7.10;99.90;;;;;;5123265;27;20181;-75
2023/02/01 00:36:41;;;;;;;32.00;4.80;;;7.10;99.90;;;;;;5126046;28;20179;-74
2023/02/01 00:39:07;;;;;;;26.10;4.07;;;7.10;99.90;;;;;;5123730;28;20242;-75
2023/02/01 00:41:33;;;;;;;33.55;4.80;;;7.10;99.90;;;;;;5132897;27;20656;-76
2023/02/01 00:44:01;;;;;;;32.80;4.75;;;7.10;99.90;;;;;;5128495;28;20220;-75
2023/02/01 00:46:26;;;;;;;30.33;4.25;;;7.10;99.90;;;;;;5100280;28;20208;-75
2023/02/01 00:48:52;;;;;;;32.05;4.55;;;7.10;99.90;;;;;;5119075;28;20215;-77
2023/02/01 00:51:22;;;;;;;21.70;4.15;;;7.10;99.90;;;;;;5132294;27;20176;-75
2023/02/01 00:53:48;;;;;;;28.73;4.35;;;7.10;99.90;;;;;;5116739;28;20208;-75
2023/02/01 00:56:13;;;;;;;34.28;5.25;;;7.10;99.90;;;;;;5130549;27;20262;-75
2023/02/01 00:58:40;;;;;;;27.60;5.03;;;7.20;99.90;;;;;;5108972;27;20185;-78
2023/02/01 01:01:23;;;;;;;33.30;5.22;;;7.10;99.90;;;;;;5122711;27;20264;-75
2023/02/01 01:03:52;;;;;;;41.55;6.70;;;7.20;99.90;;;;;;5121491;27;20619;-76
2023/02/01 01:06:21;;;;;;;33.72;6.30;;;7.20;99.90;;;;;;5116045;27;20190;-81
2023/02/01 01:08:47;;;;;;;33.72;5.75;;;7.20;99.90;;;;;;5125145;27;20189;-75
2023/02/01 01:11:17;;;;;;;38.28;6.30;;;7.20;99.90;;;;;;5135313;27;20219;-75
2023/02/01 01:13:46;;;;;;;38.05;5.50;;;7.20;99.90;;;;;;5134847;27;20189;-77
2023/02/01 01:16:12;;;;;;;32.25;5.18;;;7.20;99.90;;;;;;5134703;27;20273;-76
2023/02/01 01:18:39;;;;;;;29.25;5.03;;;7.20;99.90;;;;;;5120599;27;20184;-75
2023/02/01 01:21:06;;;;;;;31.08;5.88;;;7.20;99.90;;;;;;5134654;27;20264;-75
2023/02/01 01:23:32;;;;;;;39.03;5.63;;;7.30;99.90;;;;;;5134625;27;20204;-77
2023/02/01 01:25:58;;;;;;;23.15;4.90;;;7.20;99.90;;;;;;5134944;27;20634;-75
2023/02/01 01:28:24;;;;;;;23.38;4.05;;;7.30;99.90;;;;;;5122154;27;20213;-75
2023/02/01 01:30:50;;;;;;;33.50;4.75;;;7.20;99.90;;;;;;5123823;27;20603;-75
2023/02/01 01:33:16;;;;;;;28.08;5.13;;;7.20;99.90;;;;;;5131702;27;20277;-75
2023/02/01 01:35:43;;;;;;;30.33;4.18;;;7.30;99.90;;;;;;5120367;27;20385;-75
2023/02/01 01:38:11;;;;;;;37.25;4.68;;;7.30;99.90;;;;;;5118246;27;20177;-75
2023/02/01 01:40:38;;;;;;;40.72;4.97;;;7.30;99.90;;;;;;5114150;27;20188;-75
2023/02/01 01:43:13;;;;;;;42.05;5.60;;;7.30;99.90;;;;;;5130139;27;20200;-75
2023/02/01 01:45:39;;;;;;;42.20;4.90;;;7.30;99.90;;;;;;5122608;27;20261;-75
2023/02/01 01:48:12;;;;;;;33.97;4.78;;;7.30;99.90;;;;;;5114656;27;20685;-75
2023/02/01 01:50:48;;;;;;;24.58;4.20;;;7.30;99.90;;;;;;5113748;28;20170;-74
2023/02/01 01:53:19;;;;;;;22.70;4.63;;;7.30;99.90;;;;;;5117770;27;20184;-75
2023/02/01 01:55:47;;;;;;;28.88;4.57;;;7.30;99.90;;;;;;5124013;27;20192;-79
2023/02/01 01:58:19;;;;;;;34.80;5.38;;;7.30;99.90;;;;;;5128550;27;20655;-76
2023/02/01 02:00:47;;;;;;;22.00;4.53;;;7.20;99.90;;;;;;5134433;27;20244;-75
2023/02/01 02:03:23;;;;;;;27.48;4.25;;;7.20;99.90;;;;;;5132877;27;20366;-75
2023/02/01 02:05:51;;;;;;;28.30;4.60;;;7.20;99.90;;;;;;5122026;27;20556;-77
2023/02/01 02:08:20;;;;;;;32.38;4.72;;;7.20;99.90;;;;;;5126990;27;20292;-75
2023/02/01 02:10:59;;;;;;;28.77;4.22;;;7.20;99.90;;;;;;5132245;27;20518;-75
2023/02/01 02:13:31;;;;;;;22.40;4.40;;;7.20;99.90;;;;;;5125501;27;20215;-75
2023/02/01 02:16:15;;;;;;;27.02;4.90;;;7.20;99.90;;;;;;5129612;27;20227;-76
2023/02/01 02:18:58;;;;;;;29.70;4.97;;;7.10;99.90;;;;;;5121056;27;20185;-80
2023/02/01 02:21:39;;;;;;;22.02;4.30;;;7.10;99.90;;;;;;5095896;28;20216;-75
2023/02/01 02:24:14;;;;;;;30.90;4.32;;;7.10;99.90;;;;;;5124226;27;20211;-75
2023/02/01 02:26:58;;;;;;;27.48;4.60;;;7.10;99.90;;;;;;5133154;27;20320;-75
2023/02/01 02:29:54;;;;;;;23.60;4.57;;;7.10;99.90;;;;;;5131765;27;20284;-74
2023/02/01 02:32:52;;;;;;;24.63;4.28;;;7.10;99.90;;;;;;5132791;27;20208;-75
2023/02/01 02:35:47;;;;;;;26.80;4.78;;;7.00;99.90;;;;;;5128820;27;20197;-75
2023/02/01 02:38:28;;;;;;;24.27;3.97;;;7.00;99.90;;;;;;5122729;27;20181;-75
2023/02/01 02:48:15;;;;;;;29.13;4.35;;;7.00;99.90;;;;;;5108591;28;20186;-75
2023/02/01 03:04:56;;;;;;;22.90;4.30;;;7.00;99.90;;;;;;5127174;27;20656;-75
2023/02/01 03:07:48;;;;;;;32.28;5.38;;;7.00;99.90;;;;;;5112557;28;20211;-75
2023/02/01 03:10:23;;;;;;;33.33;4.68;;;7.10;99.90;;;;;;5123667;27;20204;-75
2023/02/01 03:12:56;;;;;;;33.50;4.70;;;7.00;99.90;;;;;;5132923;27;20228;-74
2023/02/01 03:16:00;;;;;;;28.70;4.55;;;7.10;99.90;;;;;;5132002;27;20231;-75
2023/02/01 03:18:33;;;;;;;32.10;4.47;;;7.10;99.90;;;;;;5112201;27;20214;-75
2023/02/01 03:21:03;;;;;;;29.23;4.63;;;7.10;99.90;;;;;;5126983;27;20573;-75
2023/02/01 03:23:33;;;;;;;26.65;4.63;;;7.10;99.90;;;;;;5120670;27;20304;-75
2023/02/01 03:26:02;;;;;;;31.85;5.30;;;7.10;99.90;;;;;;5132714;27;20191;-75
2023/02/01 03:28:32;;;;;;;35.63;4.70;;;7.10;99.90;;;;;;5129245;27;20184;-75
2023/02/01 03:30:58;;;;;;;29.95;4.70;;;7.10;99.90;;;;;;5130951;27;20172;-75
2023/02/01 03:33:26;;;;;;;27.98;5.15;;;7.10;99.90;;;;;;5127741;27;20180;-75
2023/02/01 03:36:34;;;;;;;26.10;4.40;;;7.10;99.90;;;;;;5128084;27;20183;-75
2023/02/01 03:39:25;;;;;;;32.35;4.38;;;7.20;99.90;;;;;;5106356;28;20246;-77
2023/02/01 03:41:55;;;;;;;30.35;4.47;;;7.10;99.90;;;;;;5078798;27;20573;-81
2023/02/01 03:44:54;;;;;;;30.90;4.38;;;7.20;99.90;;;;;;5107607;27;20193;-75
2023/02/01 03:47:29;;;;;;;26.58;5.00;;;7.20;99.90;;;;;;5123664;27;20173;-75
2023/02/01 03:50:02;;;;;;;26.77;4.65;;;7.20;99.90;;;;;;5112600;27;20185;-74
2023/02/01 03:52:36;;;;;;;35.55;4.88;;;7.20;99.90;;;;;;5114957;27;20184;-75
2023/02/01 03:55:05;;;;;;;32.20;5.05;;;7.20;99.90;;;;;;5115323;27;20676;-75
2023/02/01 03:57:36;;;;;;;21.52;4.35;;;7.20;99.90;;;;;;5111157;28;20182;-74
2023/02/01 04:00:18;;;;;;;26.67;4.53;;;7.20;99.90;;;;;;5121069;27;20177;-75
2023/02/01 04:02:44;;;;;;;30.13;4.95;;;7.20;99.90;;;;;;5120753;27;20223;-74
2023/02/01 04:05:10;;;;;;;36.35;5.35;;;7.20;99.90;;;;;;5120211;27;20562;-75
2023/02/01 04:07:39;;;;;;;36.47;5.45;;;7.20;99.90;;;;;;5111798;28;20191;-74
2023/02/01 04:10:05;;;;;;;30.92;4.68;;;7.20;99.90;;;;;;5129559;27;20184;-75
2023/02/01 04:12:31;;;;;;;37.75;5.80;;;7.10;99.90;;;;;;5128970;27;20195;-75
2023/02/01 04:14:56;;;;;;;32.58;5.20;;;7.20;99.90;;;;;;5118285;27;20181;-75
2023/02/01 04:17:22;;;;;;;30.42;5.07;;;7.20;99.90;;;;;;5121187;28;20635;-75
2023/02/01 04:19:48;;;;;;;32.10;5.30;;;7.20;99.90;;;;;;5130972;28;20204;-75
2023/02/01 04:22:14;;;;;;;33.35;5.65;;;7.20;99.90;;;;;;5131472;27;20261;-75
2023/02/01 04:24:39;;;;;;;29.83;5.05;;;7.20;99.90;;;;;;5128808;27;20196;-75
2023/02/01 04:27:05;;;;;;;30.15;5.55;;;7.20;99.90;;;;;;5109793;28;20189;-75
2023/02/01 04:29:31;;;;;;;36.78;6.15;;;7.20;99.90;;;;;;5111511;28;20197;-74
2023/02/01 04:31:57;;;;;;;30.52;5.32;;;7.20;99.90;;;;;;5110184;28;20209;-76
2023/02/01 04:34:24;;;;;;;26.58;5.15;;;7.10;99.90;;;;;;5113721;28;20205;-77
2023/02/01 04:36:51;;;;;;;34.10;5.43;;;7.20;99.90;;;;;;5125976;28;20184;-77
2023/02/01 04:39:16;;;;;;;29.65;4.40;;;7.20;99.90;;;;;;5130103;28;20184;-76
2023/02/01 04:41:42;;;;;;;24.20;4.30;;;7.20;99.90;;;;;;5116780;28;20663;-75
2023/02/01 04:44:17;;;;;;;27.92;4.80;;;7.10;99.90;;;;;;5114891;28;20640;-79
2023/02/01 04:46:43;;;;;;;29.58;4.45;;;7.20;99.90;;;;;;5119368;28;20236;-76
2023/02/01 04:49:10;;;;;;;30.30;5.18;;;7.20;99.90;;;;;;5119614;28;20398;-74
2023/02/01 04:51:35;;;;;;;32.03;4.95;;;7.10;99.90;;;;;;5111447;28;20185;-74
2023/02/01 04:54:01;;;;;;;37.97;5.22;;;7.10;99.90;;;;;;5141280;27;20719;-74
2023/02/01 04:56:27;;;;;;;29.98;5.05;;;7.10;99.90;;;;;;5112038;28;20194;-77
2023/02/01 04:58:55;;;;;;;26.10;4.60;;;7.10;99.90;;;;;;5115764;28;20185;-74
2023/02/01 05:01:22;;;;;;;34.53;4.82;;;7.10;99.90;;;;;;5111231;28;20261;-75
2023/02/01 05:03:48;;;;;;;26.98;5.40;;;7.10;99.90;;;;;;5116689;28;20935;-76
2023/02/01 05:06:14;;;;;;;37.05;5.60;;;7.10;99.90;;;;;;5130370;27;20231;-76
2023/02/01 05:08:40;;;;;;;38.85;4.75;;;7.10;99.90;;;;;;5123246;27;20189;-74
2023/02/01 05:11:06;;;;;;;34.53;5.60;;;7.10;99.90;;;;;;5130387;28;20240;-77
2023/02/01 05:13:50;;;;;;;33.47;4.57;;;7.10;99.90;;;;;;5127469;27;20293;-75
2023/02/01 05:16:16;;;;;;;33.28;4.43;;;7.10;99.90;;;;;;5069978;28;1166940;-75
2023/02/01 05:18:42;;;;;;;25.20;4.35;;;7.10;99.90;;;;;;5120489;28;20639;-77
2023/02/01 05:21:08;;;;;;;32.22;4.80;;;7.10;99.90;;;;;;5111732;28;20309;-74
2023/02/01 05:24:09;;;;;;;36.47;4.80;;;7.00;99.90;;;;;;5116571;28;20288;-74
2023/02/01 05:26:19;;;;;;;30.00;5.15;;;7.00;99.90;;;;;;5126686;28;20245;-75
2023/02/01 05:28:45;;;;;;;31.38;4.65;;;7.00;99.90;;;;;;5112899;28;20265;-75
2023/02/01 05:31:11;;;;;;;27.40;4.40;;;7.00;99.90;;;;;;5110282;28;20173;-75
2023/02/01 05:33:37;;;;;;;28.02;4.65;;;7.00;99.90;;;;;;5112106;28;20331;-75
2023/02/01 05:36:03;;;;;;;32.00;4.40;;;7.00;99.90;;;;;;5110138;28;20680;-76
2023/02/01 05:38:31;;;;;;;34.45;4.78;;;7.00;99.90;;;;;;5111413;28;20259;-75
2023/02/01 05:40:57;;;;;;;32.50;4.78;;;7.10;99.90;;;;;;5115968;27;20173;-76
2023/02/01 05:43:23;;;;;;;28.33;4.47;;;7.10;99.90;;;;;;5120313;27;20540;-75
2023/02/01 05:45:51;;;;;;;28.27;4.50;;;7.10;99.90;;;;;;5134108;27;20276;-75
2023/02/01 05:48:17;;;;;;;28.95;4.35;;;7.10;99.90;;;;;;5134698;27;20181;-75
2023/02/01 05:50:43;;;;;;;26.65;5.03;;;7.20;99.90;;;;;;5124391;27;20200;-82
2023/02/01 05:53:09;;;;;;;36.00;5.10;;;7.20;99.90;;;;;;5125240;27;20546;-76
2023/02/01 05:55:36;;;;;;;33.78;5.00;;;7.20;99.90;;;;;;5107716;27;20176;-83
2023/02/01 05:58:02;;;;;;;36.17;4.97;;;7.20;99.90;;;;;;5120678;27;20597;-76
2023/02/01 06:00:28;;;;;;;27.92;4.50;;;7.20;99.90;;;;;;5131270;27;20200;-73
2023/02/01 06:02:53;;;;;;;29.73;4.68;;;7.20;99.90;;;;;;5133058;27;20304;-84
2023/02/01 06:05:19;;;;;;;22.92;4.32;;;7.20;99.90;;;;;;5135247;27;20202;-75
2023/02/01 06:07:45;;;;;;;28.98;5.03;;;7.20;99.90;;;;;;5124119;27;20610;-76
2023/02/01 06:10:11;;;;;;;30.95;5.50;;;7.20;99.90;;;;;;5114517;27;20189;-74
2023/02/01 06:12:37;;;;;;;33.67;5.18;;;7.20;99.90;;;;;;5113134;27;20525;-76
2023/02/01 06:15:03;;;;;;;21.73;4.57;;;7.10;99.90;;;;;;5131630;27;20589;-75
2023/02/01 06:17:29;;;;;;;23.08;4.50;;;7.10;99.90;;;;;;5126748;27;20215;-75
2023/02/01 06:19:54;;;;;;;28.77;4.93;;;7.10;99.90;;;;;;5100698;28;20209;-75
2023/02/01 06:22:22;;;;;;;24.63;4.05;;;7.10;99.90;;;;;;5113821;28;20201;-74
2023/02/01 06:24:48;;;;;;;31.48;5.28;;;7.10;99.90;;;;;;5129581;27;20184;-75
2023/02/01 06:27:14;;;;;;;29.17;4.68;;;7.10;99.90;;;;;;5128214;27;20577;-75
2023/02/01 06:29:40;;;;;;;26.80;4.75;;;7.10;99.90;;;;;;5118056;27;20540;-75
2023/02/01 06:32:06;;;;;;;34.95;5.30;;;7.10;99.90;;;;;;5114826;27;21969;-83
2023/02/01 06:34:32;;;;;;;34.78;4.55;;;7.10;99.90;;;;;;5117902;27;20207;-77
2023/02/01 06:36:58;;;;;;;32.63;5.00;;;7.10;99.90;;;;;;5114132;28;20169;-75
2023/02/01 06:39:24;;;;;;;35.65;5.22;;;7.10;99.90;;;;;;5125230;27;20581;-74
2023/02/01 06:41:50;;;;;;;40.92;5.70;;;7.10;99.90;;;;;;5119571;27;20209;-74
2023/02/01 06:44:16;;;;;;;30.55;5.18;;;7.10;99.90;;;;;;5127146;27;20572;-74
2023/02/01 06:46:42;;;;;;;28.85;4.55;;;7.10;99.90;;;;;;5134344;27;20265;-75
2023/02/01 06:49:08;;;;;;;33.33;4.88;;;7.10;99.90;;;;;;5133325;27;20696;-74
2023/02/01 06:51:34;;;;;;;30.55;4.60;;;7.10;99.90;;;;;;5128690;27;20176;-78
2023/02/01 06:54:00;;;;;;;37.80;4.68;;;7.10;99.90;;;;;;5119916;27;20177;-75
2023/02/01 06:56:26;;;;;;;30.02;4.10;;;7.10;99.90;;;;;;5125508;27;20180;-74
2023/02/01 06:58:52;;;;;;;28.70;4.75;;;7.10;99.90;;;;;;5130978;27;20240;-74
2023/02/01 07:01:19;;;;;;;32.05;4.07;;;7.10;99.90;;;;;;5124404;27;20169;-76
2023/02/01 07:03:51;;;;;;;31.27;4.40;;;7.20;99.90;;;;;;5109330;27;20661;-74
2023/02/01 07:06:18;;;;;;;30.50;4.53;;;7.20;99.90;;;;;;5116526;27;20192;-74
2023/02/01 07:08:44;;;;;;;27.77;4.75;;;7.20;99.90;;;;;;5118563;27;20195;-74
2023/02/01 07:11:12;;;;;;;34.13;5.53;;;7.20;99.90;;;;;;5122526;27;20188;-74
2023/02/01 07:13:39;;;;;;;29.35;4.82;;;7.20;99.90;;;;;;5122964;27;20195;-74
2023/02/01 07:16:08;;;;;;;35.17;5.20;;;7.20;99.90;;;;;;5124371;27;20344;-75
2023/02/01 07:18:34;;;;;;;28.50;4.63;;;7.20;99.90;;;;;;5113170;28;20767;-74
2023/02/01 07:21:00;;;;;;;30.13;4.03;;;7.30;99.90;;;;;;5114546;27;20311;-77
2023/02/01 07:23:27;;;;;;;26.50;4.47;;;7.30;99.90;;;;;;5112135;28;20568;-73
2023/02/01 07:25:57;;;;;;;30.67;5.30;;;7.20;99.90;;;;;;5113605;28;20181;-77
2023/02/01 07:28:23;;;;;;;27.70;4.75;;;7.30;99.90;;;;;;5114775;27;20173;-75
2023/02/01 07:30:50;;;;;;;35.95;5.40;;;7.30;99.90;;;;;;5131463;27;20172;-75
2023/02/01 07:33:24;;;;;;;24.85;4.55;;;7.30;99.90;;;;;;5120620;27;20193;-74
2023/02/01 07:35:51;;;;;;;29.77;4.50;;;7.30;99.90;;;;;;5123236;27;20217;-76
2023/02/01 07:38:17;;;;;;;28.52;5.68;;;7.30;99.90;;;;;;5114399;27;20705;-77
2023/02/01 07:40:44;;;;;;;32.58;4.75;;;7.30;99.90;;;;;;5117705;27;20205;-79
2023/02/01 07:43:10;;;;;;;23.70;4.63;;;7.30;99.90;;;;;;5128263;27;20208;-78
2023/02/01 07:45:36;;;;;;;48.50;5.88;;;7.30;99.90;;;;;;5131442;27;20267;-76
2023/02/01 07:48:02;;;;;;;32.03;4.90;;;7.40;99.90;;;;;;5132148;27;20192;-76
2023/02/01 07:50:29;;;;;;;38.42;4.65;;;7.30;99.90;;;;;;5126613;27;20619;-76
2023/02/01 07:52:55;;;;;;;29.70;4.50;;;7.30;99.90;;;;;;5122476;27;20589;-81
2023/02/01 07:55:21;;;;;;;35.70;5.47;;;7.30;99.90;;;;;;5118415;27;20189;-76
2023/02/01 07:57:47;;;;;;;31.25;5.07;;;7.30;99.90;;;;;;5123947;27;20628;-76
2023/02/01 08:02:58;;;;;;;35.92;5.13;;;7.40;99.90;;;;;;5112746;27;20227;-77
2023/02/01 08:05:24;;;;;;;32.15;4.65;;;7.30;99.90;;;;;;5115397;27;20250;-76
2023/02/01 08:07:50;;;;;;;32.67;5.25;;;7.40;99.90;;;;;;5113654;27;20652;-78
2023/02/01 08:10:18;;;;;;;30.75;4.70;;;7.40;99.90;;;;;;5111805;27;20970;-77
2023/02/01 08:12:48;;;;;;;30.85;4.75;;;7.40;99.90;;;;;;5111721;27;20264;-78
2023/02/01 08:15:17;;;;;;;29.52;4.68;;;7.50;99.90;;;;;;5115692;27;20264;-73
2023/02/01 08:17:48;;;;;;;29.55;5.00;;;7.40;99.90;;;;;;5114096;27;20188;-74
2023/02/01 08:20:14;;;;;;;38.50;4.40;;;7.40;99.90;;;;;;5121149;27;20292;-73
2023/02/01 08:22:40;;;;;;;28.20;4.40;;;7.50;99.90;;;;;;5112684;27;20204;-76
2023/02/01 08:25:06;;;;;;;28.33;5.25;;;7.50;99.90;;;;;;5112522;27;20628;-74
2023/02/01 08:27:35;;;;;;;30.17;4.80;;;7.40;99.90;;;;;;5113725;28;20252;-74
2023/02/01 08:30:01;;;;;;;27.58;4.50;;;7.50;99.90;;;;;;5126089;28;20275;-74
2023/02/01 08:32:27;;;;;;;24.40;4.47;;;7.50;99.90;;;;;;5128205;28;20272;-74
2023/02/01 08:34:53;;;;;;;24.92;4.22;;;7.50;99.90;;;;;;5115352;28;20193;-75
2023/02/01 08:37:19;;;;;;;24.67;4.15;;;7.50;99.90;;;;;;5121424;28;20232;-76
2023/02/01 08:39:46;;;;;;;26.77;4.72;;;7.50;99.90;;;;;;5119042;27;20339;-76
2023/02/01 08:44:56;;;;;;;27.08;4.55;;;7.50;99.90;;;;;;5123331;28;20279;-74
2023/02/01 08:47:22;;;;;;;29.10;4.65;;;7.60;99.90;;;;;;5132193;27;20263;-73
2023/02/01 08:49:48;;;;;;;34.08;4.40;;;7.50;99.90;;;;;;5115631;28;20597;-75
2023/02/01 08:52:14;;;;;;;31.67;4.45;;;7.50;99.90;;;;;;5120932;28;20236;-75
2023/02/01 08:54:41;;;;;;;24.83;4.20;;;7.60;99.90;;;;;;5128304;28;20229;-77
2023/02/01 08:57:07;;;;;;;31.50;5.18;;;7.60;99.90;;;;;;5128419;27;20273;-81
2023/02/01 08:59:33;;;;;;;32.03;4.20;;;7.60;99.90;;;;;;5118867;27;20632;-75
2023/02/01 09:01:59;;;;;;;24.08;4.43;;;7.60;99.90;;;;;;5125734;28;20232;-79
2023/02/01 09:04:24;;;;;;;30.58;5.13;;;7.60;99.90;;;;;;5119103;28;20186;-75
2023/02/01 09:06:51;;;;;;;24.98;4.13;;;7.60;99.90;;;;;;5118710;28;20642;-75
2023/02/01 09:09:16;;;;;;;28.23;4.70;;;7.60;99.90;;;;;;5121497;28;20176;-79
2023/02/01 09:11:42;;;;;;;38.45;4.82;;;7.60;99.90;;;;;;5122353;28;20181;-75
2023/02/01 09:14:08;;;;;;;19.95;4.30;;;7.60;99.90;;;;;;5121098;28;20185;-75
2023/02/01 09:16:33;;;;;;;29.67;4.82;;;7.60;99.90;;;;;;5124127;27;20250;-75
2023/02/01 09:18:59;;;;;;;23.05;4.25;;;7.60;99.90;;;;;;5130586;27;20191;-75
2023/02/01 09:21:25;;;;;;;22.15;4.13;;;7.60;99.90;;;;;;5124988;27;20184;-75
2023/02/01 09:23:51;;;;;;;22.70;4.50;;;7.60;99.90;;;;;;5125093;27;20217;-75
2023/02/01 09:26:17;;;;;;;31.85;4.15;;;7.60;99.90;;;;;;5118219;27;20193;-75
2023/02/01 09:28:43;;;;;;;23.73;4.28;;;7.60;99.90;;;;;;5115580;27;20174;-75
2023/02/01 09:31:09;;;;;;;31.90;4.30;;;7.60;99.90;;;;;;5128105;27;20200;-75
2023/02/01 09:33:35;;;;;;;28.25;4.07;;;7.60;99.90;;;;;;5124439;27;20277;-75
2023/02/01 09:36:03;;;;;;;25.25;4.13;;;7.60;99.90;;;;;;5127394;27;20593;-75
2023/02/01 09:38:30;;;;;;;21.55;4.40;;;7.60;99.90;;;;;;5133146;27;20264;-76
2023/02/01 09:40:57;;;;;;;22.67;3.78;;;7.60;99.90;;;;;;5125203;27;20633;-75
2023/02/01 09:43:47;;;;;;;27.77;4.15;;;7.60;99.90;;;;;;5123327;27;20271;-73
2023/02/01 09:46:28;;;;;;;23.20;3.97;;;7.60;99.90;;;;;;5128392;27;20564;-75
2023/02/01 09:49:00;;;;;;;21.80;3.50;;;7.60;99.90;;;;;;5120721;27;20173;-75
2023/02/01 09:51:37;;;;;;;22.00;4.40;;;7.60;99.90;;;;;;5123536;27;20624;-74
2023/02/01 09:54:05;;;;;;;18.33;3.97;;;7.60;99.90;;;;;;5121438;27;20183;-74
2023/02/01 09:56:41;;;;;;;24.02;4.05;;;7.60;99.90;;;;;;5122423;27;20170;-75
2023/02/01 09:59:29;;;;;;;29.02;4.38;;;7.60;99.90;;;;;;5120034;27;20189;-79
2023/02/01 10:01:55;;;;;;;20.63;4.15;;;7.60;99.90;;;;;;5120356;27;20581;-74
2023/02/01 10:04:21;;;;;;;30.98;4.13;;;7.60;99.90;;;;;;5123228;27;20621;-75
2023/02/01 10:07:17;;;;;;;28.35;4.63;;;7.60;99.90;;;;;;5115151;28;20276;-74
2023/02/01 10:09:55;;;;;;;26.02;3.90;;;7.60;99.90;;;;;;5124555;27;20180;-75
2023/02/01 10:12:36;;;;;;;24.23;3.78;;;7.50;99.90;;;;;;5130562;27;20192;-74
2023/02/01 10:15:14;;;;;;;25.83;4.63;;;7.50;99.90;;;;;;5129863;27;20251;-74
2023/02/01 10:18:07;;;;;;;25.60;4.13;;;7.50;99.90;;;;;;5125254;27;20248;-75
2023/02/01 10:20:54;;;;;;;27.60;5.72;;;7.40;99.90;;;;;;5114403;27;20170;-83
2023/02/01 10:23:26;;;;;;;23.08;4.35;;;7.40;99.90;;;;;;5126460;27;20307;-74
2023/02/01 10:26:19;;;;;;;18.88;3.83;;;7.40;99.90;;;;;;5129765;27;20181;-76
2023/02/01 10:28:50;;;;;;;22.20;4.78;;;7.40;99.90;;;;;;5120082;27;20297;-75
2023/02/01 10:31:16;;;;;;;21.83;4.00;;;7.40;99.90;;;;;;5118973;27;20251;-75
2023/02/01 10:33:50;;;;;;;32.78;4.72;;;7.40;99.90;;;;;;5119781;27;20263;-76
2023/02/01 10:36:30;;;;;;;24.33;3.90;;;7.40;99.90;;;;;;5115932;27;20277;-75
2023/02/01 10:39:00;;;;;;;25.13;5.00;;;7.40;99.90;;;;;;5119435;27;20664;-77
2023/02/01 10:41:44;;;;;;;21.65;3.58;;;7.40;99.90;;;;;;5125965;27;20274;-76
2023/02/01 10:44:22;;;;;;;22.33;5.43;;;7.50;99.90;;;;;;5118897;27;20587;-75
2023/02/01 10:46:49;;;;;;;29.20;4.15;;;7.60;99.90;;;;;;5115140;27;20264;-77
2023/02/01 10:49:24;;;;;;;28.38;4.25;;;7.50;99.90;;;;;;5127956;27;20180;-75
2023/02/01 10:52:06;;;;;;;23.15;4.53;;;7.60;99.90;;;;;;5133198;27;20186;-75
2023/02/01 10:54:38;;;;;;;25.27;4.00;;;7.60;99.90;;;;;;5132334;27;20263;-76
2023/02/01 10:57:28;;;;;;;29.95;3.42;;;7.70;99.90;;;;;;5122918;27;20188;-75
2023/02/01 10:59:54;;;;;;;25.00;4.05;;;7.70;99.90;;;;;;5130622;27;20283;-76
2023/02/01 11:02:31;;;;;;;26.52;4.40;;;7.70;99.90;;;;;;5134566;27;20192;-75
2023/02/01 11:05:09;;;;;;;19.67;3.95;;;7.80;99.90;;;;;;5128733;27;20184;-75
2023/02/01 11:07:36;;;;;;;28.48;4.45;;;7.80;99.90;;;;;;5113972;28;20162;-75
2023/02/01 11:10:03;;;;;;;17.75;3.70;;;7.90;99.90;;;;;;5129644;27;20639;-75
2023/02/01 11:12:33;;;;;;;23.48;3.85;;;7.90;99.90;;;;;;5132253;27;20179;-75
2023/02/01 11:15:21;;;;;;;24.80;4.53;;;7.90;99.90;;;;;;5131374;27;20632;-76
2023/02/01 11:17:51;;;;;;;30.35;4.53;;;7.80;99.90;;;;;;5103564;28;20197;-75
2023/02/01 11:20:33;;;;;;;30.55;4.45;;;7.80;99.90;;;;;;5131840;27;20671;-75
2023/02/01 11:22:59;;;;;;;29.80;4.55;;;7.70;99.90;;;;;;5131415;27;20230;-76
2023/02/01 11:25:25;;;;;;;22.35;4.25;;;7.70;99.90;;;;;;5133903;27;20216;-76
2023/02/01 11:27:53;;;;;;;20.77;4.25;;;7.70;99.90;;;;;;5134298;27;20257;-75
2023/02/01 11:30:38;;;;;;;25.58;4.05;;;7.70;99.90;;;;;;5130451;27;20189;-76
2023/02/01 11:33:05;;;;;;;21.85;4.25;;;7.70;99.90;;;;;;5131806;27;20195;-74
2023/02/01 11:35:31;;;;;;;27.40;4.82;;;7.60;99.90;;;;;;5134056;27;20184;-74
2023/02/01 11:37:59;;;;;;;13.95;2.95;;;7.60;99.90;;;;;;5131079;27;20180;-81
2023/02/01 11:40:38;;;;;;;6.45;1.50;;;7.50;99.90;;;;;;5132164;27;20703;-78
2023/02/01 11:43:28;;;;;;;8.00;1.90;;;7.30;99.90;;;;;;5131791;27;20268;-76
2023/02/01 11:46:02;;;;;;;9.15;1.45;;;7.00;99.90;;;;;;5112348;28;20178;-76
2023/02/01 11:48:32;;;;;;;7.63;1.20;;;6.80;99.90;;;;;;5117469;27;20171;-77
2023/02/01 11:51:23;;;;;;;7.80;1.48;;;6.50;99.90;;;;;;5132697;27;20233;-75
2023/02/01 11:54:07;;;;;;;4.82;1.38;;;6.40;99.90;;;;;;5128352;27;20220;-75
2023/02/01 11:56:51;;;;;;;10.68;2.13;;;6.30;99.90;;;;;;5133737;27;20229;-78
2023/02/01 11:59:32;;;;;;;14.90;1.88;;;6.20;99.90;;;;;;5121951;27;20177;-75
2023/02/01 12:02:10;;;;;;;7.63;1.70;;;6.10;99.90;;;;;;5115176;27;20188;-74
2023/02/01 12:04:48;;;;;;;5.30;1.38;;;6.10;99.90;;;;;;5121101;27;20185;-80
2023/02/01 12:07:20;;;;;;;16.05;2.13;;;6.00;99.90;;;;;;5134024;27;20161;-79
2023/02/01 12:10:15;;;;;;;15.18;2.30;;;6.00;99.90;;;;;;5125676;27;20579;-76
2023/02/01 12:13:13;;;;;;;18.85;2.58;;;6.00;99.90;;;;;;5131033;27;20688;-80
2023/02/01 12:15:47;;;;;;;20.00;2.60;;;6.10;99.90;;;;;;5113019;28;20282;-79
2023/02/01 12:18:39;;;;;;;18.63;2.65;;;6.10;99.90;;;;;;5114612;27;20582;-80
2023/02/01 12:21:23;;;;;;;19.35;2.75;;;6.30;99.90;;;;;;5116039;27;20655;-79
2023/02/01 12:24:17;;;;;;;14.82;2.38;;;6.40;99.90;;;;;;5116352;27;20613;-79
2023/02/01 12:27:16;;;;;;;17.60;2.65;;;6.50;99.90;;;;;;5111854;27;20177;-75
2023/02/01 12:29:53;;;;;;;22.88;3.83;;;6.60;99.90;;;;;;5126084;28;20182;-76
2023/02/01 12:32:53;;;;;;;23.30;3.78;;;6.70;99.90;;;;;;5130635;27;20165;-75
2023/02/01 12:35:42;;;;;;;31.13;4.78;;;6.90;99.90;;;;;;5110942;28;20629;-78
2023/02/01 12:38:17;;;;;;;34.67;4.72;;;7.40;99.90;;;;;;5111588;28;20177;-79
2023/02/01 12:41:17;;;;;;;37.30;5.18;;;7.70;99.90;;;;;;5109611;28;20706;-74
2023/02/01 12:43:53;;;;;;;35.70;5.43;;;8.10;99.90;;;;;;5045125;27;20332;-75
2023/02/01 12:46:25;;;;;;;31.35;4.65;;;8.50;99.90;;;;;;5132376;27;20176;-75
2023/02/01 12:49:25;;;;;;;32.35;4.82;;;8.60;99.90;;;;;;5122779;27;20172;-80
2023/02/01 12:51:57;;;;;;;44.72;5.10;;;8.60;99.90;;;;;;5134447;27;20246;-76
2023/02/01 12:54:35;;;;;;;34.20;5.07;;;8.60;99.90;;;;;;5133125;27;20177;-76
2023/02/01 12:57:05;;;;;;;33.63;4.60;;;8.60;99.90;;;;;;5134681;27;20251;-77
2023/02/01 12:59:49;;;;;;;40.75;5.72;;;8.50;99.90;;;;;;5129472;27;20211;-75
2023/02/01 13:02:25;;;;;;;40.42;5.22;;;8.50;99.90;;;;;;5117428;27;20656;-75
2023/02/01 13:05:16;;;;;;;37.28;5.18;;;8.50;99.90;;;;;;5127811;27;20187;-76
2023/02/01 13:08:09;;;;;;;31.30;5.65;;;8.50;99.90;;;;;;5111662;27;20192;-78
2023/02/01 13:10:35;;;;;;;37.72;5.72;;;8.50;99.90;;;;;;5116468;28;20216;-76
2023/02/01 13:13:22;;;;;;;37.00;4.93;;;8.50;99.90;;;;;;5115936;27;20188;-76
2023/02/01 13:16:01;;;;;;;34.15;5.30;;;8.60;99.90;;;;;;5127690;27;20234;-76
2023/02/01 13:18:34;;;;;;;35.72;4.85;;;8.70;99.90;;;;;;5130893;27;20171;-76
2023/02/01 13:21:06;;;;;;;33.67;5.18;;;8.90;99.90;;;;;;5134774;27;20192;-76
2023/02/01 13:23:39;;;;;;;34.15;4.47;;;9.50;99.90;;;;;;5131133;27;20720;-76
2023/02/01 13:26:05;;;;;;;32.25;5.53;;;10.00;99.90;;;;;;5116142;28;20178;-75
2023/02/01 13:28:36;;;;;;;31.48;4.45;;;9.90;99.90;;;;;;5119367;27;20237;-75
2023/02/01 13:31:20;;;;;;;28.65;4.88;;;9.90;99.90;;;;;;5126585;27;20251;-76
2023/02/01 13:33:58;;;;;;;41.13;5.70;;;9.70;99.90;;;;;;5135410;27;20183;-76
2023/02/01 13:37:13;;;;;;;32.20;4.50;;;9.50;99.90;;;;;;5123319;27;20169;-76
2023/02/01 13:39:44;;;;;;;32.90;5.20;;;9.50;99.90;;;;;;5123036;27;20404;-76